Latest Weather Observations for Richmond

IDN60801

Issued at 2:35 pm EDT Tuesday 21 October 2014 (issued every 30 minutes, with the page automatically refreshed every 10 minutes)

About weather observations | Map of weather stations | Latest weather observations for NSW | Other Formats
Station Details ID: 067105 Name: RICHMOND RAAF Lat: -33.60 Lon: 150.78 Height: 19.0 m
Data from the previous 72 hours. | See also: Recent months at Richmond
Date/Time
EDT
Temp
°C
App
Temp
°C
Dew
Point
Rel
Hum
%
Delta-T
°C
Wind Press
QNH
hPa
Press
MSL
hPa
Rain
since 9 am
mm
Dir
 
Spd
km/h
Gust
km/h
Spd
kts
Gust
kts
21/02:30pm 17.2 15.7 9.1 59 4.2 ENE 7 11 4 6 1030.8 1030.8 0.0
21/02:00pm 16.9 14.9 8.8 59 4.1 E 9 13 5 7 1031.3 1031.3 0.0
21/01:30pm 16.8 15.6 9.5 62 3.8 E 6 9 3 5 1031.8 1031.8 0.0
21/01:00pm 15.9 14.7 10.2 69 3.0 SE 7 9 4 5 1032.1 1032.1 0.0
21/12:30pm 15.6 14.3 11.4 76 2.3 ENE 9 15 5 8 1032.4 1032.4 0.0
21/12:00pm 15.8 14.9 11.4 75 2.3 E 7 13 4 7 1032.7 1032.7 0.0
21/11:30am 16.6 15.1 10.5 67 3.2 ESE 9 13 5 7 1032.7 1032.7 0.0
21/11:00am 17.2 16.2 10.3 64 3.6 ENE 6 9 3 5 1032.9 1032.9 0.0
21/10:30am 16.7 15.9 11.6 72 2.8 SSW 7 13 4 7 1032.9 1032.9 0.0
21/10:00am 16.3 15.9 12.3 77 2.2 SSE 6 9 3 5 1033.0 1033.0 0.0
21/09:30am 15.7 14.8 12.5 81 1.8 S 9 15 5 8 1033.0 1033.0 0.0
21/09:00am 15.0 14.0 12.3 84 1.5 SSW 9 13 5 7 1032.7 1032.7 1.6
21/08:30am 14.4 13.5 12.6 89 1.0 SSW 9 13 5 7 1032.6 1032.6 1.6
21/08:00am 14.1 13.2 12.7 91 0.8 SW 9 13 5 7 1032.3 1032.3 1.6
21/07:30am 13.7 12.8 12.6 93 0.6 WSW 9 11 5 6 1032.0 1032.0 1.6
21/07:00am 13.4 12.5 12.6 95 0.4 SW 9 11 5 6 1031.8 1031.8 1.6
21/06:30am 13.3 12.4 12.7 96 0.3 SW 9 13 5 7 1031.5 1031.5 1.6
21/06:00am 13.4 12.6 12.9 97 0.3 SW 9 13 5 7 1031.3 1031.3 1.6
21/05:30am 13.3 12.8 12.8 97 0.3 SW 7 9 4 5 1031.0 1031.0 1.6
21/05:00am 13.4 13.1 12.8 96 0.3 SSE 6 7 3 4 1030.9 1030.9 1.6
21/04:54am 13.4 13.1 12.8 96 0.3 SSE 6 7 3 4 1030.9 1030.9 1.6
21/04:52am 13.3 13.0 12.7 96 0.3 SSE 6 9 3 5 1030.9 1030.9 1.6
21/04:30am 13.3 12.5 12.8 97 0.3 S 9 13 5 7 1031.0 1031.0 1.4
21/04:20am 13.3 13.0 12.8 97 0.3 SSW 6 9 3 5 1031.1 1031.1 1.0
21/04:19am 13.3 13.0 12.8 97 0.3 SSW 6 9 3 5 1031.1 1031.1 1.0
21/04:00am 13.2 12.9 12.7 97 0.3 SSW 6 7 3 4 1031.0 1031.0 1.0
21/03:39am 13.3 13.0 12.8 97 0.3 SSW 6 7 3 4 1031.1 1031.1 1.0
21/03:37am 13.3 13.0 12.8 97 0.3 SSW 6 7 3 4 1031.1 1031.1 1.0
21/03:30am 13.3 13.0 12.8 97 0.3 SSW 6 9 3 5 1031.1 1031.1 1.0
21/03:00am 13.2 12.7 12.7 97 0.3 WSW 7 7 4 4 1031.2 1031.2 1.0
21/02:52am 13.1 12.6 12.6 97 0.3 WSW 7 9 4 5 1031.2 1031.2 1.0
21/02:44am 13.1 12.6 12.6 97 0.3 W 7 9 4 5 1031.2 1031.2 1.0
21/02:30am 13.0 12.6 12.5 97 0.3 SSW 6 7 3 4 1031.3 1031.3 1.0
21/02:07am 13.2 12.3 12.6 96 0.3 S 9 13 5 7 1031.4 1031.4 1.0
21/02:00am 13.2 12.3 12.6 96 0.3 S 9 11 5 6 1031.5 1031.5 1.0
21/01:30am 13.1 12.6 12.5 96 0.3 S 7 9 4 5 1031.7 1031.7 1.0
21/01:29am 13.1 12.6 12.5 96 0.3 S 7 11 4 6 1031.7 1031.7 1.0
21/01:00am 12.9 11.9 12.3 96 0.3 SW 9 11 5 6 1031.6 1031.6 1.0
21/12:30am 12.8 11.4 12.2 96 0.3 WSW 11 13 6 7 1031.9 1031.9 1.0
21/12:01am 12.7 10.9 12.1 96 0.3 WNW 13 17 7 9 1032.1 1032.1 1.0
21/12:00am 12.7 10.9 12.1 96 0.3 WNW 13 17 7 9 1032.1 1032.1 1.0
 
Date/Time
EDT
Temp
°C
App
Temp
°C
Dew
Point
Rel
Hum
%
Delta-T
°C
Wind Press
QNH
hPa
Press
MSL
hPa
Rain
since 9 am
mm
Dir
 
Spd
km/h
Gust
km/h
Spd
kts
Gust
kts
20/11:30pm 13.0 11.6 12.2 95 0.4 W 11 13 6 7 1032.3 1032.3 0.8
20/11:00pm 13.2 13.8 11.9 92 0.7 SW 0 0 0 0 1032.5 1032.5 0.4
20/10:30pm 13.4 12.6 11.8 90 0.9 SW 7 13 4 7 1032.3 1032.3 0.0
20/10:00pm 14.4 13.8 11.7 84 1.4 NNE 6 9 3 5 1032.1 1032.1 0.0
20/09:51pm 14.6 13.8 11.6 82 1.6 ENE 7 11 4 6 1032.2 1032.2 0.0
20/09:30pm 15.0 12.9 11.2 78 2.0 W 13 17 7 9 1032.0 1032.0 0.0
20/09:00pm 15.2 14.3 11.4 78 2.0 W 7 9 4 5 1031.8 1031.8 0.0
20/08:30pm 15.2 14.5 11.4 78 2.0 S 6 7 3 4 1031.4 1031.4 0.0
20/08:00pm 15.0 13.0 11.4 79 1.9 S 13 28 7 15 1031.3 1031.3 0.0
20/07:30pm 16.5 14.6 10.6 68 3.1 S 11 20 6 11 1030.8 1030.8 0.0
20/07:00pm 16.3 14.4 10.4 68 3.1 S 11 19 6 10 1030.5 1030.5 0.0
20/06:30pm 16.7 15.6 10.5 67 3.3 S 7 11 4 6 1030.3 1030.3 0.0
20/06:00pm 16.6 14.5 11.1 70 2.9 SSE 13 19 7 10 1030.1 1030.1 0.0
20/05:30pm 17.2 14.0 11.2 68 3.2 SE 19 26 10 14 1029.9 1029.9 0.0
20/05:00pm 17.2 13.0 11.2 68 3.2 SE 24 33 13 18 1029.8 1029.8 0.0
20/04:30pm 17.6 14.4 11.4 67 3.4 SE 19 26 10 14 1029.5 1029.5 0.0
20/04:00pm 17.2 14.2 12.1 72 2.8 SSE 19 32 10 17 1029.5 1029.5 0.0
20/03:30pm 17.9 14.5 12.6 71 3.0 SSE 22 30 12 16 1029.6 1029.6 0.0
20/03:00pm 18.2 14.9 11.7 66 3.5 SSE 20 30 11 16 1029.5 1029.5 0.0
20/02:30pm 18.8 15.7 12.1 65 3.7 SE 20 28 11 15 1029.7 1029.7 0.0
20/02:00pm 19.7 17.1 10.7 56 4.9 SSW 15 20 8 11 1029.8 1029.8 0.0
20/01:30pm 19.5 17.1 10.2 55 5.0 SSW 13 20 7 11 1030.1 1030.1 0.0
20/01:00pm 19.3 16.1 11.1 59 4.4 S 19 26 10 14 1030.2 1030.2 0.0
20/12:30pm 19.0 14.7 10.6 58 4.5 SSE 24 33 13 18 1030.4 1030.4 0.0
20/12:00pm 18.4 14.8 10.7 61 4.1 SSE 20 30 11 16 1030.6 1030.6 0.0
20/11:30am 18.5 14.8 10.3 59 4.4 SSE 20 28 11 15 1030.6 1030.6 0.0
20/11:00am 18.6 15.0 10.7 60 4.2 S 20 30 11 16 1030.4 1030.4 0.0
20/10:30am 18.5 15.0 10.8 61 4.2 SSE 20 32 11 17 1030.4 1030.4 0.0
20/10:00am 18.6 15.9 11.7 64 3.8 SSE 17 22 9 12 1030.1 1030.1 0.0
20/09:30am 18.6 15.1 10.9 61 4.2 S 20 28 11 15 1029.6 1029.6 0.0
20/09:00am 18.7 15.0 11.5 63 3.9 S 22 33 12 18 1029.1 1029.1 0.0
20/08:30am 18.1 16.5 12.8 71 3.0 SSW 13 19 7 10 1028.5 1028.5 0.0
20/08:00am 17.2 16.3 13.7 80 2.0 SSW 11 15 6 8 1027.9 1027.9 0.0
20/07:30am 16.1 15.1 13.4 84 1.5 SW 11 15 6 8 1027.0 1027.0 0.0
20/07:00am 14.9 13.8 13.1 89 1.0 SW 11 17 6 9 1026.2 1026.2 0.0
20/06:30am 14.4 12.7 12.6 89 1.0 S 13 17 7 9 1025.0 1025.0 0.0
20/06:00am 12.5 12.7 11.9 96 0.3 SW 2 24 1 13 1023.2 1023.2 0.0
20/05:30am 12.6 12.0 11.8 95 0.4 S 6 9 3 5 1021.9 1021.9 0.0
20/05:00am 13.1 13.0 12.0 93 0.6 NNE 4 9 2 5 1021.6 1021.6 0.0
20/04:30am 13.1 13.8 12.3 95 0.4 CALM 0 0 0 0 1021.5 1021.5 0.0
20/04:00am 13.0 13.7 12.1 94 0.5 CALM 0 0 0 0 1021.4 1021.4 0.0
20/03:30am 13.6 14.3 12.3 92 0.7 CALM 0 0 0 0 1021.7 1021.7 0.0
20/03:00am 13.8 14.6 12.4 91 0.8 CALM 0 0 0 0 1021.7 1021.7 0.0
20/02:30am 13.5 13.8 12.1 91 0.8 NW 2 6 1 3 1021.9 1021.9 0.0
20/02:00am 13.9 13.5 12.3 90 0.9 NNW 6 6 3 3 1021.8 1021.8 0.0
20/01:30am 14.2 13.9 12.6 90 0.9 NNW 6 7 3 4 1022.2 1022.2 0.0
20/01:00am 15.1 16.0 13.0 87 1.2 CALM 0 0 0 0 1022.4 1022.4 0.0
20/12:30am 15.3 14.6 13.1 87 1.2 SW 9 11 5 6 1022.8 1022.8 0.0
20/12:00am 15.3 15.0 12.6 84 1.5 ESE 6 7 3 4 1022.6 1022.6 0.0
 
Date/Time
EDT
Temp
°C
App
Temp
°C
Dew
Point
Rel
Hum
%
Delta-T
°C
Wind Press
QNH
hPa
Press
MSL
hPa
Rain
since 9 am
mm
Dir
 
Spd
km/h
Gust
km/h
Spd
kts
Gust
kts
19/11:30pm 16.0 15.3 13.1 83 1.6 S 9 9 5 5 1022.9 1022.9 0.0
19/11:00pm 17.6 18.6 13.3 76 2.4 CALM 0 4 0 2 1022.7 1022.7 0.0
19/10:30pm 17.5 17.2 12.6 73 2.7 NNE 6 7 3 4 1022.7 1022.7 0.0
19/10:00pm 18.2 17.4 12.9 71 3.0 ENE 9 11 5 6 1022.9 1022.9 0.0
19/09:30pm 19.3 17.8 13.2 68 3.5 ENE 13 17 7 9 1022.8 1022.8 0.0
19/09:00pm 20.0 18.9 13.2 65 3.9 E 11 13 6 7 1022.6 1022.6 0.0
19/08:30pm 20.6 19.0 12.8 61 4.4 ENE 13 17 7 9 1022.2 1022.2 0.0
19/08:00pm 22.1 19.8 12.9 56 5.2 ENE 17 22 9 12 1021.6 1021.6 0.0
19/07:30pm 22.9 20.5 12.5 52 5.9 ENE 17 20 9 11 1021.3 1021.3 0.0
19/07:00pm 25.0 22.8 10.8 41 7.9 ENE 13 19 7 10 1020.9 1020.9 0.0
19/06:30pm 26.5 24.2 8.9 33 9.6 NE 11 15 6 8 1020.5 1020.5 0.0
19/06:00pm 27.8 25.0 8.6 30 10.5 NE 13 17 7 9 1020.4 1020.4 0.0
19/05:30pm 28.5 25.5 9.2 30 10.7 NE 15 19 8 10 1020.4 1020.4 0.0
19/05:00pm 28.7 25.9 8.4 28 11.1 NE 13 17 7 9 1020.5 1020.5 0.0
19/04:30pm 28.7 25.6 8.9 29 10.9 NE 15 22 8 12 1020.6 1020.6 0.0
19/04:00pm 28.6 25.4 8.3 28 11.1 ENE 15 20 8 11 1020.9 1020.9 0.0
19/03:30pm 28.6 25.7 9.8 31 10.5 NE 15 20 8 11 1021.3 1021.3 0.0
19/03:00pm 28.1 25.3 9.9 32 10.1 NE 15 22 8 12 1021.6 1021.6 0.0
19/02:30pm 27.5 24.0 8.9 31 10.2 NE 17 22 9 12 1022.0 1022.0 0.0
19/02:00pm 27.3 23.6 9.6 33 9.8 ENE 19 30 10 16 1022.4 1022.4 0.0
19/01:30pm 26.2 22.9 8.2 32 9.7 ENE 15 28 8 15 1023.2 1023.2 0.0
19/01:00pm 25.7 22.7 9.1 35 9.0 NNE 15 22 8 12 1023.7 1023.7 0.0
19/12:30pm 25.9 24.4 10.5 38 8.6 NNE 9 17 5 9 1024.1 1024.1 0.0
19/12:00pm 24.8 22.7 9.9 39 8.2 NNE 11 20 6 11 1024.8 1024.8 0.0
19/11:30am 22.7 21.1 11.4 49 6.3 ENE 11 19 6 10 1025.4 1025.4 0.0
19/11:00am 20.9 19.7 11.5 55 5.2 NNE 9 17 5 9 1026.2 1026.2 0.0
19/10:30am 19.1 18.3 11.2 60 4.3 NNE 6 9 3 5 1027.0 1027.0 0.0
19/10:00am 16.8 16.5 10.2 65 3.5 NNW 2 6 1 3 1027.5 1027.5 0.0
19/09:30am 15.5 15.3 10.3 71 2.7 WNW 2 6 1 3 1027.6 1027.6 0.0
19/09:00am 14.5 13.8 9.9 74 2.4 NE 4 9 2 5 1027.6 1027.6 0.0
19/08:30am 12.6 12.1 9.2 80 1.7 N 2 9 1 5 1027.7 1027.7 0.0
19/08:00am 11.5 11.4 9.4 87 1.0 CALM 0 0 0 0 1027.8 1027.8 0.0
19/07:30am 10.5 10.3 8.9 90 0.8 CALM 0 0 0 0 1027.8 1027.8 0.0
19/07:00am 9.5 9.3 9.0 97 0.2 CALM 0 0 0 0 1027.3 1027.3 0.0
19/06:30am 8.3 7.8 7.9 97 0.2 CALM 0 0 0 0 1027.1 1027.1 0.0
19/06:00am 8.0 7.4 7.4 96 0.3 CALM 0 0 0 0 1027.1 1027.1 0.0
19/05:30am 8.2 7.6 7.4 95 0.4 CALM 0 0 0 0 1027.0 1027.0 0.0
19/05:00am 8.9 8.5 8.3 96 0.3 CALM 0 0 0 0 1026.8 1026.8 0.0
19/04:30am 9.0 8.1 7.6 91 0.7 SW 2 6 1 3 1026.8 1026.8 0.0
19/04:00am 9.8 9.4 8.4 91 0.7 CALM 0 0 0 0 1026.9 1026.9 0.0
19/03:30am 10.2 9.9 8.5 89 0.8 CALM 0 7 0 4 1026.9 1026.9 0.0
19/03:00am 10.5 9.0 8.6 88 0.9 NNE 6 7 3 4 1027.2 1027.2 0.0
19/02:30am 10.9 9.5 8.8 87 1.0 NNE 6 7 3 4 1027.4 1027.4 0.0
19/02:00am 10.3 8.4 9.2 93 0.5 NE 9 11 5 6 1027.4 1027.4 0.0
19/01:30am 10.7 10.5 9.1 90 0.8 CALM 0 7 0 4 1027.8 1027.8 0.0
19/01:00am 10.7 10.4 8.5 86 1.1 CALM 0 0 0 0 1028.4 1028.4 0.0
19/12:30am 11.3 11.1 9.0 86 1.1 CALM 0 0 0 0 1028.5 1028.5 0.0
19/12:00am 11.7 11.6 9.3 85 1.2 CALM 0 0 0 0 1028.3 1028.3 0.0
 
Date/Time
EDT
Temp
°C
App
Temp
°C
Dew
Point
Rel
Hum
%
Delta-T
°C
Wind Press
QNH
hPa
Press
MSL
hPa
Rain
since 9 am
mm
Dir
 
Spd
km/h
Gust
km/h
Spd
kts
Gust
kts
18/11:30pm 12.0 10.5 9.0 82 1.5 NNW 7 13 4 7 1028.5 1028.5 0.0
18/11:00pm 12.6 12.3 8.7 77 1.9 CALM 0 0 0 0 1028.7 1028.7 0.0
18/10:30pm 13.8 13.5 8.8 72 2.5 CALM 0 0 0 0 1028.8 1028.8 0.0
18/10:00pm 13.9 12.4 8.5 70 2.7 N 6 7 3 4 1028.8 1028.8 0.0
18/09:30pm 14.6 13.1 8.5 67 3.1 NNE 6 7 3 4 1028.7 1028.7 0.0
18/09:00pm 15.0 13.0 8.7 66 3.2 NNE 9 11 5 6 1028.4 1028.4 0.0
18/08:30pm 15.6 14.0 8.6 63 3.6 NE 7 9 4 5 1028.0 1028.0 0.0
18/08:00pm 16.2 13.7 8.4 60 3.9 ENE 11 17 6 9 1027.6 1027.6 0.0
18/07:30pm 16.6 14.1 8.3 58 4.2 ENE 11 15 6 8 1027.2 1027.2 0.0
18/07:00pm 17.5 13.8 8.1 54 4.8 ENE 17 22 9 12 1026.6 1026.6 0.0
18/06:30pm 18.6 14.0 8.3 51 5.3 ENE 22 32 12 17 1026.0 1026.0 0.0
18/06:00pm 20.0 15.6 9.0 49 5.8 ENE 22 32 12 17 1025.6 1025.6 0.0
18/05:30pm 21.8 19.2 9.3 45 6.7 NE 13 19 7 10 1025.4 1025.4 0.0
18/05:00pm 21.9 18.4 7.3 39 7.5 E 15 24 8 13 1025.4 1025.4 0.0
18/04:30pm 22.4 19.5 6.6 36 8.1 ESE 11 20 6 11 1025.4 1025.4 0.0
18/04:00pm 21.7 19.3 5.2 34 8.1 ENE 7 13 4 7 1025.5 1025.5 0.0
18/03:30pm 21.6 18.0 5.1 34 8.2 ESE 13 24 7 13 1025.9 1025.9 0.0
18/03:00pm 21.8 19.3 6.5 37 7.7 NW 9 15 5 8 1026.4 1026.4 0.0

Other Formats:

Comma delimited format used in spreadsheet applications
http://www.bom.gov.au/fwo/IDN60801/IDN60801.95753.axf

JavaScript Object Notation format (JSON) in row-major order
http://www.bom.gov.au/fwo/IDN60801/IDN60801.95753.json